createdAt,value
2023-03-17T00:01:16.334Z,6.67
2023-03-17T00:03:45.549Z,6.69
2023-03-17T00:06:16.656Z,6.70
2023-03-17T00:08:45.725Z,6.71
2023-03-17T00:11:14.945Z,6.73
2023-03-17T00:13:42.154Z,6.73
2023-03-17T00:16:16.664Z,6.75
2023-03-17T00:18:43.742Z,6.76
2023-03-17T00:21:14.654Z,6.78
2023-03-17T00:23:49.613Z,6.80
2023-03-17T00:26:16.311Z,6.81
2023-03-17T00:28:43.350Z,6.82
2023-03-17T00:31:22.211Z,6.82
2023-03-17T00:33:52.183Z,6.81
2023-03-17T00:36:24.066Z,6.80
2023-03-17T00:38:52.572Z,6.80
2023-03-17T00:41:19.180Z,6.81
2023-03-17T00:43:46.591Z,6.80
2023-03-17T00:46:16.588Z,6.79
2023-03-17T00:48:45.236Z,6.78
2023-03-17T00:51:12.894Z,6.76
2023-03-17T00:53:39.804Z,6.73
2023-03-17T00:56:13.381Z,6.70
2023-03-17T00:58:41.565Z,6.65
2023-03-17T01:01:09.894Z,6.61
2023-03-17T01:03:36.630Z,6.56
2023-03-17T01:06:04.844Z,6.51
2023-03-17T01:08:32.204Z,6.48
2023-03-17T01:10:59.532Z,6.45
2023-03-17T01:13:26.317Z,6.44
2023-03-17T01:15:55.752Z,6.42
2023-03-17T01:18:23.116Z,6.40
2023-03-17T01:20:50.663Z,6.38
2023-03-17T01:23:18.334Z,6.37
2023-03-17T01:25:45.506Z,6.34
2023-03-17T01:28:14.850Z,6.32
2023-03-17T01:30:41.384Z,6.29
2023-03-17T01:33:10.480Z,6.28
2023-03-17T01:35:38.440Z,6.26
2023-03-17T01:38:06.012Z,6.26
2023-03-17T01:40:35.766Z,6.24
2023-03-17T01:43:17.534Z,6.22
2023-03-17T01:46:21.530Z,6.22
2023-03-17T01:49:10.320Z,6.20
2023-03-17T01:52:02.618Z,6.20
2023-03-17T01:54:38.237Z,6.18
2023-03-17T01:57:23.347Z,6.17
2023-03-17T01:59:54.395Z,6.16
2023-03-17T02:02:25.951Z,6.15
2023-03-17T02:04:53.112Z,6.13
2023-03-17T02:07:22.149Z,6.10
2023-03-17T02:09:49.554Z,6.10
2023-03-17T02:12:22.536Z,6.10
2023-03-17T02:14:49.649Z,6.09
2023-03-17T02:17:16.206Z,6.08
2023-03-17T02:19:42.805Z,6.06
2023-03-17T02:22:09.422Z,6.04
2023-03-17T02:24:40.558Z,6.00
2023-03-17T02:27:14.687Z,6.00
2023-03-17T02:29:42.031Z,5.98
2023-03-17T02:32:10.000Z,5.96
2023-03-17T02:34:37.300Z,5.94
2023-03-17T02:37:04.605Z,5.93
2023-03-17T02:39:33.059Z,5.92
2023-03-17T02:41:59.870Z,5.90
2023-03-17T02:44:27.015Z,5.88
2023-03-17T02:46:54.845Z,5.87
2023-03-17T02:49:22.173Z,5.85
2023-03-17T02:51:48.645Z,5.85
2023-03-17T02:54:15.428Z,5.82
2023-03-17T02:56:41.957Z,5.80
2023-03-17T02:59:08.764Z,5.78
2023-03-17T03:01:35.551Z,5.75
2023-03-17T03:04:02.511Z,5.73
2023-03-17T03:06:31.678Z,5.71
2023-03-17T03:08:58.656Z,5.68
2023-03-17T03:11:25.535Z,5.64
2023-03-17T03:13:52.192Z,5.60
2023-03-17T03:16:18.695Z,5.58
2023-03-17T03:18:45.797Z,5.55
2023-03-17T03:21:12.427Z,5.49
2023-03-17T03:23:38.973Z,5.45
2023-03-17T03:26:05.645Z,5.39
2023-03-17T03:28:32.335Z,5.32
2023-03-17T03:30:58.870Z,5.31
2023-03-17T03:33:25.780Z,5.29
2023-03-17T03:35:52.694Z,5.27
2023-03-17T03:38:19.222Z,5.28
2023-03-17T03:40:45.968Z,5.28
2023-03-17T03:43:22.988Z,5.27
2023-03-17T03:45:50.430Z,5.29
2023-03-17T03:48:16.957Z,5.30
2023-03-17T03:50:43.756Z,5.29
2023-03-17T03:53:10.231Z,5.29
2023-03-17T03:55:37.106Z,5.28
2023-03-17T03:58:03.592Z,5.26
2023-03-17T04:00:30.237Z,5.23
2023-03-17T04:02:56.846Z,5.22
2023-03-17T04:05:23.599Z,5.19
2023-03-17T04:07:50.033Z,5.16
2023-03-17T04:10:17.026Z,5.13
2023-03-17T04:12:43.589Z,5.11
2023-03-17T04:15:14.011Z,5.09
2023-03-17T04:17:41.201Z,5.06
2023-03-17T04:20:08.889Z,5.02
2023-03-17T04:22:35.427Z,4.98
2023-03-17T04:25:03.108Z,4.94
2023-03-17T04:27:29.557Z,4.89
2023-03-17T04:29:56.008Z,4.85
2023-03-17T04:32:22.464Z,4.81
2023-03-17T04:34:48.915Z,4.75
2023-03-17T04:37:15.653Z,4.69
2023-03-17T04:39:42.206Z,4.65
2023-03-17T04:42:08.957Z,4.62
2023-03-17T04:44:36.610Z,4.61
2023-03-17T04:47:03.232Z,4.59
2023-03-17T04:49:29.799Z,4.55
2023-03-17T04:51:56.259Z,4.51
2023-03-17T04:54:22.948Z,4.49
2023-03-17T04:56:49.410Z,4.46
2023-03-17T04:59:16.263Z,4.41
2023-03-17T05:01:42.698Z,4.37
2023-03-17T05:04:11.135Z,4.35
2023-03-17T05:06:39.687Z,4.31
2023-03-17T05:09:06.247Z,4.27
2023-03-17T05:11:32.761Z,4.24
2023-03-17T05:13:59.489Z,4.23
2023-03-17T05:16:26.065Z,4.20
2023-03-17T05:18:52.585Z,4.18
2023-03-17T05:21:19.024Z,4.17
2023-03-17T05:23:45.474Z,4.16
2023-03-17T05:26:11.992Z,4.13
2023-03-17T05:28:38.434Z,4.11
2023-03-17T05:31:05.299Z,4.11
2023-03-17T05:33:31.790Z,4.10
2023-03-17T05:35:58.393Z,4.11
2023-03-17T05:38:25.093Z,4.11
2023-03-17T05:40:52.678Z,4.12
2023-03-17T05:43:19.493Z,4.12
2023-03-17T05:45:47.282Z,4.15
2023-03-17T05:48:13.801Z,4.14
2023-03-17T05:50:41.683Z,4.15
2023-03-17T05:53:08.569Z,4.17
2023-03-17T05:55:35.241Z,4.20
2023-03-17T05:58:04.366Z,4.24
2023-03-17T06:00:31.555Z,4.29
2023-03-17T06:02:58.428Z,4.36
2023-03-17T06:05:24.941Z,4.42
2023-03-17T06:07:55.769Z,4.49
2023-03-17T06:10:24.119Z,4.54
2023-03-17T06:12:50.922Z,4.57
2023-03-17T06:15:17.492Z,4.62
2023-03-17T06:17:44.590Z,4.68
2023-03-17T06:20:11.941Z,4.74
2023-03-17T06:22:44.070Z,4.82
2023-03-17T06:25:15.586Z,4.89
2023-03-17T06:27:42.632Z,4.93
2023-03-17T06:30:10.168Z,4.96
2023-03-17T06:32:36.675Z,4.97
2023-03-17T06:35:05.261Z,4.98
2023-03-17T06:37:31.840Z,5.01
2023-03-17T06:39:58.415Z,5.02
2023-03-17T06:42:24.880Z,5.05
2023-03-17T06:44:52.621Z,5.08
2023-03-17T06:47:19.686Z,5.09
2023-03-17T06:49:46.497Z,5.10
2023-03-17T06:52:13.500Z,5.12
2023-03-17T06:54:41.288Z,5.17
2023-03-17T06:57:07.994Z,5.20
2023-03-17T06:59:34.499Z,5.24
2023-03-17T07:02:01.444Z,5.28
2023-03-17T07:04:33.130Z,5.36
2023-03-17T07:07:02.597Z,5.48
2023-03-17T07:09:29.578Z,5.57
2023-03-17T07:11:58.215Z,5.66
2023-03-17T07:14:25.636Z,5.79
2023-03-17T07:16:52.188Z,5.87
2023-03-17T07:19:18.800Z,5.93
2023-03-17T07:21:47.029Z,5.98
2023-03-17T07:24:13.645Z,6.04
2023-03-17T07:26:40.192Z,6.10
2023-03-17T07:29:06.631Z,6.16
2023-03-17T07:31:33.117Z,6.22
2023-03-17T07:33:59.574Z,6.28
2023-03-17T07:36:26.223Z,6.34
2023-03-17T07:38:52.692Z,6.40
2023-03-17T07:41:22.202Z,6.47
2023-03-17T07:43:48.682Z,6.54
2023-03-17T07:46:15.210Z,6.62
2023-03-17T07:48:43.325Z,6.68
2023-03-17T07:51:15.519Z,6.81
2023-03-17T07:53:42.626Z,6.91
2023-03-17T07:56:09.394Z,7.05
2023-03-17T07:58:35.969Z,7.18
2023-03-17T08:01:03.390Z,7.31
2023-03-17T08:03:32.830Z,7.42
2023-03-17T08:06:00.661Z,7.51
2023-03-17T08:08:29.309Z,7.61
2023-03-17T08:11:03.522Z,7.73
2023-03-17T08:13:31.390Z,7.86
2023-03-17T08:15:58.200Z,8.01
2023-03-17T08:18:24.974Z,8.18
2023-03-17T08:20:52.158Z,8.35
2023-03-17T08:23:20.390Z,8.51
2023-03-17T08:25:47.870Z,8.66
2023-03-17T08:28:15.279Z,8.82
2023-03-17T08:30:43.017Z,8.96
2023-03-17T08:33:09.851Z,9.10
2023-03-17T08:35:39.767Z,9.22
2023-03-17T08:38:06.434Z,9.37
2023-03-17T08:40:33.152Z,9.52
2023-03-17T08:42:59.776Z,9.67
2023-03-17T08:45:26.623Z,9.81
2023-03-17T08:47:53.448Z,9.94
2023-03-17T08:50:23.334Z,10.06
2023-03-17T08:52:51.719Z,10.16
2023-03-17T08:55:19.390Z,10.25
2023-03-17T08:57:45.935Z,10.37
2023-03-17T09:00:15.324Z,10.48
2023-03-17T09:02:43.172Z,10.59
2023-03-17T09:05:12.761Z,10.68
2023-03-17T09:07:40.076Z,10.79
2023-03-17T09:10:14.823Z,10.89
2023-03-17T09:12:41.538Z,10.99
2023-03-17T09:15:08.716Z,11.08
2023-03-17T09:17:35.179Z,11.15
2023-03-17T09:20:01.790Z,11.22
2023-03-17T09:22:28.291Z,11.29
2023-03-17T09:24:54.717Z,11.33
2023-03-17T09:27:21.289Z,11.40
2023-03-17T09:29:47.757Z,11.43
2023-03-17T09:32:15.303Z,11.46
2023-03-17T09:34:41.992Z,11.47
2023-03-17T09:37:09.749Z,11.50
2023-03-17T09:39:36.449Z,11.53
2023-03-17T09:42:08.711Z,11.53
2023-03-17T09:44:35.186Z,11.56
2023-03-17T09:47:27.894Z,11.58
2023-03-17T09:50:12.800Z,11.64
2023-03-17T09:52:39.356Z,11.70
2023-03-17T09:55:11.818Z,11.77
2023-03-17T09:57:40.460Z,11.86
2023-03-17T10:00:20.744Z,11.92
2023-03-17T10:02:47.297Z,12.01
2023-03-17T10:05:20.505Z,12.10
2023-03-17T10:07:57.077Z,12.19
2023-03-17T10:10:42.396Z,12.28
2023-03-17T10:13:34.799Z,12.39
2023-03-17T10:16:07.617Z,12.52
2023-03-17T10:18:45.111Z,12.63
2023-03-17T10:21:17.929Z,12.75
2023-03-17T10:23:45.593Z,12.88
2023-03-17T10:26:39.822Z,12.99
2023-03-17T10:29:14.816Z,13.08
2023-03-17T10:31:41.397Z,13.18
2023-03-17T10:34:21.325Z,13.28
2023-03-17T10:36:51.408Z,13.36
2023-03-17T10:39:21.117Z,13.45
2023-03-17T10:41:56.980Z,13.56
2023-03-17T10:44:40.435Z,13.66
2023-03-17T10:47:21.664Z,13.81
2023-03-17T10:49:48.235Z,13.97
2023-03-17T10:52:28.125Z,14.09
2023-03-17T10:54:54.853Z,14.22
2023-03-17T10:57:22.127Z,14.31
2023-03-17T10:59:53.690Z,14.42
2023-03-17T11:02:25.804Z,14.55
2023-03-17T11:05:01.198Z,14.66
2023-03-17T11:07:34.881Z,14.75
2023-03-17T11:10:03.074Z,14.85
2023-03-17T11:12:40.144Z,14.90
2023-03-17T11:15:13.062Z,14.98
2023-03-17T11:18:12.678Z,15.07
2023-03-17T11:21:01.761Z,15.15
2023-03-17T11:23:47.305Z,15.22
2023-03-17T11:26:47.611Z,15.28
2023-03-17T11:29:35.808Z,15.31
2023-03-17T11:32:11.531Z,15.32
2023-03-17T11:34:56.844Z,15.33
2023-03-17T11:37:34.089Z,15.36
2023-03-17T11:40:18.386Z,15.40
2023-03-17T11:43:03.494Z,15.39
2023-03-17T11:45:54.574Z,15.42
2023-03-17T11:48:38.190Z,15.45
2023-03-17T11:51:27.437Z,15.46
2023-03-17T11:54:08.087Z,15.48
2023-03-17T11:56:48.648Z,15.50
2023-03-17T11:59:28.799Z,15.52
2023-03-17T12:02:15.143Z,15.55
2023-03-17T12:04:57.253Z,15.56
2023-03-17T12:07:48.231Z,15.64
2023-03-17T12:10:28.525Z,15.74
2023-03-17T12:13:07.242Z,15.83
2023-03-17T12:15:48.409Z,15.88
2023-03-17T12:18:21.022Z,15.96
2023-03-17T12:21:00.102Z,16.03
2023-03-17T12:23:56.944Z,16.08
2023-03-17T12:26:37.113Z,16.12
2023-03-17T12:29:16.616Z,16.19
2023-03-17T12:31:48.940Z,16.28
2023-03-17T12:34:25.795Z,16.42
2023-03-17T12:36:52.849Z,16.52
2023-03-17T12:39:27.168Z,16.61
2023-03-17T12:41:59.791Z,16.72
2023-03-17T12:45:04.460Z,16.88
2023-03-17T12:47:46.489Z,17.07
2023-03-17T12:50:27.136Z,17.22
2023-03-17T12:53:12.379Z,17.34
2023-03-17T12:55:39.223Z,17.43
2023-03-17T12:58:35.672Z,17.54
2023-03-17T13:01:25.734Z,17.65
2023-03-17T13:04:13.332Z,17.80
2023-03-17T13:06:46.159Z,17.95
2023-03-17T13:09:31.837Z,18.05
2023-03-17T13:12:00.187Z,18.15
2023-03-17T13:14:39.022Z,18.22
2023-03-17T13:17:28.829Z,18.27
2023-03-17T13:20:07.586Z,18.33
2023-03-17T13:23:00.474Z,18.37
2023-03-17T13:25:48.250Z,18.44
2023-03-17T13:28:23.008Z,18.50
2023-03-17T13:31:16.534Z,18.53
2023-03-17T13:33:52.087Z,18.60
2023-03-17T13:36:55.980Z,18.67
2023-03-17T13:39:37.895Z,18.75
2023-03-17T13:42:23.251Z,18.82
2023-03-17T13:45:33.973Z,18.87
2023-03-17T13:48:37.847Z,18.93
2023-03-17T13:51:25.763Z,18.94
2023-03-17T13:53:56.943Z,18.91
2023-03-17T13:56:48.243Z,18.89
2023-03-17T13:59:19.987Z,18.88
2023-03-17T14:02:01.311Z,18.86
2023-03-17T14:04:35.427Z,18.87
2023-03-17T14:07:06.911Z,18.83
2023-03-17T14:09:37.762Z,18.82
2023-03-17T14:12:12.997Z,18.80
2023-03-17T14:15:21.513Z,18.79
2023-03-17T14:17:53.471Z,18.75
2023-03-17T14:20:26.054Z,18.74
2023-03-17T14:22:59.939Z,18.68
2023-03-17T14:25:32.917Z,18.62
2023-03-17T14:28:00.165Z,18.54
2023-03-17T14:30:29.589Z,18.50
2023-03-17T14:33:11.944Z,18.45
2023-03-17T14:35:42.935Z,18.42
2023-03-17T14:38:23.953Z,18.41
2023-03-17T14:40:59.338Z,18.36
2023-03-17T14:43:27.181Z,18.32
2023-03-17T14:46:02.889Z,18.30
2023-03-17T14:48:35.427Z,18.29
2023-03-17T14:51:06.619Z,18.28
2023-03-17T14:53:41.337Z,18.24
2023-03-17T14:56:07.948Z,18.20
2023-03-17T14:58:41.509Z,18.15
2023-03-17T15:01:36.564Z,18.09
2023-03-17T15:04:25.678Z,18.05
2023-03-17T15:06:55.300Z,18.01
2023-03-17T15:09:27.857Z,17.94
2023-03-17T15:11:58.141Z,17.89
2023-03-17T15:14:29.813Z,17.84
2023-03-17T15:16:56.641Z,17.81
2023-03-17T15:19:29.708Z,17.81
2023-03-17T15:21:59.897Z,17.80
2023-03-17T15:24:40.627Z,17.76
2023-03-17T15:27:17.062Z,17.73
2023-03-17T15:29:44.122Z,17.70
2023-03-17T15:32:38.106Z,17.66
2023-03-17T15:35:06.292Z,17.60
2023-03-17T15:37:34.667Z,17.56
2023-03-17T15:40:03.294Z,17.52
2023-03-17T15:42:36.356Z,17.46
2023-03-17T15:45:04.089Z,17.43
2023-03-17T15:47:36.728Z,17.39
2023-03-17T15:50:16.332Z,17.34
2023-03-17T15:52:43.884Z,17.28
2023-03-17T15:55:20.879Z,17.23
2023-03-17T15:57:54.816Z,17.20
2023-03-17T16:00:24.126Z,17.14
2023-03-17T16:02:57.258Z,17.08
2023-03-17T16:05:33.463Z,17.03
2023-03-17T16:07:59.932Z,16.95
2023-03-17T16:10:29.748Z,16.88
2023-03-17T16:12:56.669Z,16.81
2023-03-17T16:15:26.125Z,16.75
2023-03-17T16:17:55.582Z,16.69
2023-03-17T16:20:26.980Z,16.61
2023-03-17T16:22:57.058Z,16.53
2023-03-17T16:25:29.436Z,16.45
2023-03-17T16:27:58.947Z,16.37
2023-03-17T16:30:28.946Z,16.31
2023-03-17T16:33:02.080Z,16.21
2023-03-17T16:35:28.697Z,16.13
2023-03-17T16:37:55.524Z,16.06
2023-03-17T16:40:25.073Z,15.98
2023-03-17T16:42:52.316Z,15.91
2023-03-17T16:45:27.987Z,15.84
2023-03-17T16:47:55.861Z,15.76
2023-03-17T16:50:26.666Z,15.66
2023-03-17T16:52:53.141Z,15.57
2023-03-17T16:55:21.496Z,15.48
2023-03-17T16:57:50.771Z,15.39
2023-03-17T17:00:23.544Z,15.31
2023-03-17T17:02:50.099Z,15.22
2023-03-17T17:05:20.044Z,15.15
2023-03-17T17:07:47.889Z,15.07
2023-03-17T17:10:18.634Z,14.98
2023-03-17T17:12:46.032Z,14.92
2023-03-17T17:15:14.483Z,14.85
2023-03-17T17:17:43.946Z,14.76
2023-03-17T17:20:21.428Z,14.67
2023-03-17T17:22:48.792Z,14.59
2023-03-17T17:25:16.374Z,14.52
2023-03-17T17:27:44.846Z,14.45
2023-03-17T17:30:17.156Z,14.39
2023-03-17T17:32:45.104Z,14.35
2023-03-17T17:35:13.033Z,14.29
2023-03-17T17:37:39.611Z,14.24
2023-03-17T17:40:08.728Z,14.19
2023-03-17T17:42:35.441Z,14.15
2023-03-17T17:45:02.382Z,14.11
2023-03-17T17:47:32.197Z,14.08
2023-03-17T17:49:59.339Z,14.03
2023-03-17T17:52:26.436Z,13.97
2023-03-17T17:54:52.899Z,13.91
2023-03-17T17:57:19.683Z,13.85
2023-03-17T17:59:46.262Z,13.81
2023-03-17T18:02:13.160Z,13.75
2023-03-17T18:04:39.881Z,13.70
2023-03-17T18:07:06.366Z,13.66
2023-03-17T18:09:32.981Z,13.62
2023-03-17T18:11:59.515Z,13.59
2023-03-17T18:14:26.606Z,13.56
2023-03-17T18:16:53.643Z,13.52
2023-03-17T18:19:20.498Z,13.49
2023-03-17T18:21:47.026Z,13.47
2023-03-17T18:24:14.584Z,13.42
2023-03-17T18:26:41.632Z,13.38
2023-03-17T18:29:09.202Z,13.33
2023-03-17T18:31:49.037Z,13.30
2023-03-17T18:34:27.038Z,13.27
2023-03-17T18:36:57.629Z,13.25
2023-03-17T18:39:24.221Z,13.21
2023-03-17T18:41:50.956Z,13.18
2023-03-17T18:44:18.892Z,13.15
2023-03-17T18:46:45.467Z,13.13
2023-03-17T18:49:12.024Z,13.09
2023-03-17T18:51:38.669Z,13.07
2023-03-17T18:54:06.055Z,13.05
2023-03-17T18:56:32.609Z,13.02
2023-03-17T18:58:59.832Z,13.01
2023-03-17T19:01:27.137Z,12.97
2023-03-17T19:03:54.042Z,12.97
2023-03-17T19:06:22.089Z,12.93
2023-03-17T19:08:48.604Z,12.90
2023-03-17T19:11:18.377Z,12.88
2023-03-17T19:13:45.580Z,12.84
2023-03-17T19:16:12.494Z,12.81
2023-03-17T19:18:41.891Z,12.77
2023-03-17T19:21:09.597Z,12.72
2023-03-17T19:23:38.157Z,12.69
2023-03-17T19:26:05.953Z,12.64
2023-03-17T19:28:32.897Z,12.62
2023-03-17T19:30:59.614Z,12.57
2023-03-17T19:33:26.149Z,12.56
2023-03-17T19:35:58.557Z,12.53
2023-03-17T19:38:27.079Z,12.51
2023-03-17T19:40:53.700Z,12.50
2023-03-17T19:43:39.024Z,12.48
2023-03-17T19:46:07.862Z,12.45
2023-03-17T19:48:35.567Z,12.43
2023-03-17T19:51:02.207Z,12.41
2023-03-17T19:53:28.854Z,12.40
2023-03-17T19:55:56.769Z,12.40
2023-03-17T19:58:23.192Z,12.41
2023-03-17T20:00:49.643Z,12.42
2023-03-17T20:03:16.556Z,12.42
2023-03-17T20:05:45.750Z,12.43
2023-03-17T20:08:12.280Z,12.44
2023-03-17T20:10:39.215Z,12.44
2023-03-17T20:13:06.393Z,12.46
2023-03-17T20:15:34.493Z,12.46
2023-03-17T20:18:01.009Z,12.46
2023-03-17T20:20:27.765Z,12.44
2023-03-17T20:22:54.243Z,12.47
2023-03-17T20:25:21.790Z,12.47
2023-03-17T20:27:48.406Z,12.49
2023-03-17T20:30:15.279Z,12.51
2023-03-17T20:32:41.928Z,12.53
2023-03-17T20:35:08.945Z,12.54
2023-03-17T20:37:35.862Z,12.57
2023-03-17T20:40:05.093Z,12.58
2023-03-17T20:42:31.554Z,12.60
2023-03-17T20:44:58.080Z,12.61
2023-03-17T20:47:24.848Z,12.60
2023-03-17T20:49:53.098Z,12.59
2023-03-17T20:52:19.818Z,12.58
2023-03-17T20:54:46.764Z,12.55
2023-03-17T20:57:16.053Z,12.55
2023-03-17T20:59:43.759Z,12.53
2023-03-17T21:02:14.389Z,12.52
2023-03-17T21:04:42.814Z,12.50
2023-03-17T21:07:09.502Z,12.49
2023-03-17T21:09:36.517Z,12.49
2023-03-17T21:12:02.968Z,12.46
2023-03-17T21:14:29.506Z,12.45
2023-03-17T21:16:57.772Z,12.46
2023-03-17T21:19:24.514Z,12.44
2023-03-17T21:21:50.935Z,12.45
2023-03-17T21:24:26.689Z,12.43
2023-03-17T21:26:53.388Z,12.43
2023-03-17T21:29:20.902Z,12.41
2023-03-17T21:31:47.583Z,12.40
2023-03-17T21:34:14.094Z,12.39
2023-03-17T21:36:40.565Z,12.38
2023-03-17T21:39:07.208Z,12.37
2023-03-17T21:41:36.386Z,12.36
2023-03-17T21:44:03.667Z,12.36
2023-03-17T21:46:31.905Z,12.34
2023-03-17T21:48:58.817Z,12.33
2023-03-17T21:51:26.132Z,12.34
2023-03-17T21:53:53.796Z,12.35
2023-03-17T21:56:21.027Z,12.33
2023-03-17T21:58:49.087Z,12.33
2023-03-17T22:01:17.534Z,12.33
2023-03-17T22:03:44.533Z,12.33
2023-03-17T22:06:13.190Z,12.34
2023-03-17T22:08:39.707Z,12.33
2023-03-17T22:11:10.790Z,12.32
2023-03-17T22:13:37.734Z,12.32
2023-03-17T22:16:05.079Z,12.29
2023-03-17T22:18:32.537Z,12.28
2023-03-17T22:20:59.730Z,12.28
2023-03-17T22:23:26.499Z,12.27
2023-03-17T22:25:53.256Z,12.26
2023-03-17T22:28:19.858Z,12.24
2023-03-17T22:30:46.443Z,12.25
2023-03-17T22:33:13.604Z,12.24
2023-03-17T22:35:41.191Z,12.24
2023-03-17T22:38:08.721Z,12.23
2023-03-17T22:40:36.232Z,12.21
2023-03-17T22:43:03.377Z,12.21
2023-03-17T22:45:30.147Z,12.19
2023-03-17T22:47:56.606Z,12.17
2023-03-17T22:50:23.964Z,12.15
2023-03-17T22:52:50.756Z,12.10
2023-03-17T22:55:17.402Z,12.06
2023-03-17T22:57:44.046Z,12.02
2023-03-17T23:00:16.359Z,11.99
2023-03-17T23:02:46.505Z,11.95
2023-03-17T23:05:13.599Z,11.93
2023-03-17T23:07:50.333Z,11.91
2023-03-17T23:10:23.027Z,11.89
2023-03-17T23:12:50.835Z,11.87
2023-03-17T23:15:18.775Z,11.84
2023-03-17T23:17:46.793Z,11.82
2023-03-17T23:20:15.116Z,11.79
2023-03-17T23:22:41.583Z,11.76
2023-03-17T23:25:08.602Z,11.74
2023-03-17T23:27:35.158Z,11.72
2023-03-17T23:30:01.860Z,11.71
2023-03-17T23:32:28.396Z,11.70
2023-03-17T23:34:54.873Z,11.68
2023-03-17T23:37:21.679Z,11.67
2023-03-17T23:39:48.513Z,11.63
2023-03-17T23:42:16.970Z,11.63
2023-03-17T23:44:45.318Z,11.61
2023-03-17T23:47:14.862Z,11.60
2023-03-17T23:49:41.593Z,11.59
2023-03-17T23:52:08.903Z,11.56
2023-03-17T23:54:35.465Z,11.53
2023-03-17T23:57:02.853Z,11.49
2023-03-17T23:59:29.329Z,11.47
